createdAt,value
2019-05-11T00:01:18.174Z,97477.10
2019-05-11T00:03:47.601Z,97464.05
2019-05-11T00:06:17.383Z,97471.23
2019-05-11T00:08:46.903Z,97459.39
2019-05-11T00:11:16.329Z,97469.27
2019-05-11T00:13:45.911Z,97468.58
2019-05-11T00:16:18.943Z,97470.87
2019-05-11T00:18:46.647Z,97466.83
2019-05-11T00:21:16.100Z,97472.46
2019-05-11T00:23:45.535Z,97469.39
2019-05-11T00:26:14.987Z,97473.35
2019-05-11T00:28:44.421Z,97467.95
2019-05-11T00:31:13.880Z,97467.16
2019-05-11T00:33:43.392Z,97464.80
2019-05-11T00:36:12.899Z,97462.50
2019-05-11T00:38:42.408Z,97459.72
2019-05-11T00:41:11.841Z,97456.03
2019-05-11T00:43:41.259Z,97460.40
2019-05-11T00:46:10.734Z,97455.00
2019-05-11T00:48:40.220Z,97447.48
2019-05-11T00:51:09.677Z,97452.41
2019-05-11T00:53:39.128Z,97447.56
2019-05-11T00:56:08.690Z,97450.34
2019-05-11T00:58:38.136Z,97442.08
2019-05-11T01:01:07.646Z,97438.91
2019-05-11T01:03:37.149Z,97437.55
2019-05-11T01:06:06.607Z,97434.94
2019-05-11T01:08:36.009Z,97431.28
2019-05-11T01:11:05.460Z,97426.99
2019-05-11T01:13:35.076Z,97430.56
2019-05-11T01:16:04.617Z,97427.76
2019-05-11T01:18:34.014Z,97424.79
2019-05-11T01:21:03.688Z,97423.39
2019-05-11T01:23:33.129Z,97415.39
2019-05-11T01:26:02.572Z,97421.03
2019-05-11T01:28:31.977Z,97418.09
2019-05-11T01:31:01.546Z,97415.95
2019-05-11T01:33:30.974Z,97409.88
2019-05-11T01:36:00.437Z,97403.05
2019-05-11T01:38:29.854Z,97400.75
2019-05-11T01:40:59.418Z,97400.98
2019-05-11T01:43:28.795Z,97403.75
2019-05-11T01:45:58.440Z,97400.81
2019-05-11T01:48:27.910Z,97396.53
2019-05-11T01:50:57.356Z,97392.88
2019-05-11T01:53:26.903Z,97387.16
2019-05-11T01:55:56.285Z,97380.00
2019-05-11T01:58:25.697Z,97366.35
2019-05-11T02:00:55.104Z,97360.16
2019-05-11T02:03:24.503Z,97365.32
2019-05-11T02:05:53.867Z,97361.36
2019-05-11T02:08:23.288Z,97348.68
2019-05-11T02:10:52.747Z,97356.20
2019-05-11T02:13:22.908Z,97346.01
2019-05-11T02:15:52.284Z,97342.84
2019-05-11T02:18:22.011Z,97337.88
2019-05-11T02:20:51.403Z,97333.48
2019-05-11T02:23:20.872Z,97337.56
2019-05-11T02:25:50.224Z,97349.71
2019-05-11T02:28:19.637Z,97354.27
2019-05-11T02:30:49.018Z,97365.30
2019-05-11T02:33:18.438Z,97358.37
2019-05-11T02:35:47.802Z,97347.56
2019-05-11T02:38:17.312Z,97335.73
2019-05-11T02:40:46.656Z,97341.14
2019-05-11T02:43:16.131Z,97343.20
2019-05-11T02:45:45.538Z,97334.02
2019-05-11T02:48:14.959Z,97337.97
2019-05-11T02:50:45.133Z,97334.86
2019-05-11T02:53:15.731Z,97331.92
2019-05-11T02:55:47.456Z,97336.95
2019-05-11T02:58:16.870Z,97331.31
2019-05-11T03:00:46.773Z,97326.05
2019-05-11T03:03:16.177Z,97312.64
2019-05-11T03:05:45.782Z,97302.08
2019-05-11T03:08:15.196Z,97288.72
2019-05-11T03:10:44.564Z,97289.28
2019-05-11T03:13:13.986Z,97280.86
2019-05-11T03:15:43.455Z,97288.41
2019-05-11T03:18:12.851Z,97282.54
2019-05-11T03:20:42.252Z,97267.45
2019-05-11T03:23:11.659Z,97273.41
2019-05-11T03:25:41.031Z,97264.77
2019-05-11T03:28:10.517Z,97261.34
2019-05-11T03:30:39.931Z,97255.23
2019-05-11T03:33:09.350Z,97236.90
2019-05-11T03:35:38.869Z,97231.09
2019-05-11T03:38:08.265Z,97232.30
2019-05-11T03:40:37.776Z,97238.73
2019-05-11T03:43:07.223Z,97234.68
2019-05-11T03:45:36.624Z,97228.08
2019-05-11T03:48:06.016Z,97227.93
2019-05-11T03:50:35.416Z,97222.53
2019-05-11T03:53:04.776Z,97214.98
2019-05-11T03:55:34.267Z,97217.84
2019-05-11T03:58:03.776Z,97217.84
2019-05-11T04:00:33.203Z,97229.20
2019-05-11T04:03:02.589Z,97227.36
2019-05-11T04:05:32.040Z,97227.78
2019-05-11T04:08:01.418Z,97224.34
2019-05-11T04:10:30.835Z,97231.28
2019-05-11T04:13:00.249Z,97232.16
2019-05-11T04:15:29.645Z,97232.06
2019-05-11T04:17:59.020Z,97232.61
2019-05-11T04:20:28.494Z,97223.72
2019-05-11T04:22:57.873Z,97224.19
2019-05-11T04:25:27.275Z,97221.66
2019-05-11T04:27:56.653Z,97211.94
2019-05-11T04:30:26.119Z,97212.20
2019-05-11T04:32:55.554Z,97210.22
2019-05-11T04:35:24.957Z,97202.98
2019-05-11T04:37:54.333Z,97200.54
2019-05-11T04:40:23.822Z,97201.58
2019-05-11T04:42:55.993Z,97200.55
2019-05-11T04:45:24.325Z,97203.84
2019-05-11T04:47:53.698Z,97188.78
2019-05-11T04:50:23.109Z,97189.03
2019-05-11T04:52:52.803Z,97181.17
2019-05-11T04:55:22.605Z,97185.70
2019-05-11T04:57:52.074Z,97176.00
2019-05-11T05:00:21.859Z,97170.80
2019-05-11T05:02:51.215Z,97162.92
2019-05-11T05:05:20.714Z,97160.23
2019-05-11T05:07:50.669Z,97166.40
2019-05-11T05:10:22.417Z,97168.52
2019-05-11T05:12:53.305Z,97174.80
2019-05-11T05:15:22.504Z,97182.11
2019-05-11T05:17:51.995Z,97178.99
2019-05-11T05:20:21.390Z,97178.44
2019-05-11T05:22:50.754Z,97176.20
2019-05-11T05:25:20.184Z,97178.73
2019-05-11T05:27:49.577Z,97173.34
2019-05-11T05:30:19.041Z,97174.36
2019-05-11T05:32:48.438Z,97175.18
2019-05-11T05:35:17.938Z,97173.59
2019-05-11T05:37:47.405Z,97171.13
2019-05-11T05:40:16.987Z,97170.44
2019-05-11T05:42:46.367Z,97168.86
2019-05-11T05:45:15.854Z,97162.17
2019-05-11T05:47:45.244Z,97161.38
2019-05-11T05:50:15.002Z,97159.80
2019-05-11T05:52:44.443Z,97159.03
2019-05-11T05:55:13.911Z,97162.10
2019-05-11T05:57:43.404Z,97159.78
2019-05-11T06:00:13.714Z,97144.18
2019-05-11T06:02:43.131Z,97126.73
2019-05-11T06:05:12.684Z,97135.23
2019-05-11T06:07:42.098Z,97143.91
2019-05-11T06:10:11.870Z,97143.84
2019-05-11T06:12:41.352Z,97145.75
2019-05-11T06:15:11.119Z,97145.69
2019-05-11T06:17:40.509Z,97162.60
2019-05-11T06:20:10.265Z,97160.77
2019-05-11T06:22:39.767Z,97155.99
2019-05-11T06:25:09.531Z,97160.59
2019-05-11T06:27:38.930Z,97160.81
2019-05-11T06:30:08.943Z,97164.92
2019-05-11T06:32:38.330Z,97158.98
2019-05-11T06:35:08.283Z,97155.93
2019-05-11T06:37:37.678Z,97149.77
2019-05-11T06:40:07.522Z,97148.47
2019-05-11T06:42:36.908Z,97161.27
2019-05-11T06:45:06.835Z,97157.01
2019-05-11T06:47:36.210Z,97160.16
2019-05-11T06:50:06.226Z,97165.29
2019-05-11T06:52:35.596Z,97160.94
2019-05-11T06:55:05.325Z,97161.27
2019-05-11T06:57:34.708Z,97163.03
2019-05-11T07:00:04.458Z,97164.48
2019-05-11T07:02:33.876Z,97161.44
2019-05-11T07:05:03.478Z,97165.91
2019-05-11T07:07:46.541Z,97159.88
2019-05-11T07:10:04.012Z,97164.64
2019-05-11T07:12:33.399Z,97170.27
2019-05-11T07:15:02.790Z,97160.72
2019-05-11T07:17:32.210Z,97171.31
2019-05-11T07:20:02.043Z,97165.94
2019-05-11T07:22:31.448Z,97178.80
2019-05-11T07:25:00.842Z,97174.44
2019-05-11T07:27:30.325Z,97176.03
2019-05-11T07:29:59.710Z,97176.39
2019-05-11T07:32:29.462Z,97176.98
2019-05-11T07:34:59.014Z,97182.97
2019-05-11T07:37:28.447Z,97170.63
2019-05-11T07:39:58.177Z,97167.42
2019-05-11T07:42:28.534Z,97172.67
2019-05-11T07:44:58.416Z,97165.02
2019-05-11T07:47:27.993Z,97174.58
2019-05-11T07:49:58.035Z,97174.80
2019-05-11T07:52:28.738Z,97170.55
2019-05-11T07:54:58.254Z,97179.80
2019-05-11T07:57:28.439Z,97167.74
2019-05-11T07:59:58.035Z,97174.80
2019-05-11T08:02:28.559Z,97186.42
2019-05-11T08:04:58.809Z,97178.52
2019-05-11T08:07:28.599Z,97181.66
2019-05-11T08:09:58.831Z,97183.70
2019-05-11T08:12:28.729Z,97190.45
2019-05-11T08:15:08.103Z,97184.36
2019-05-11T08:17:29.438Z,97189.44
2019-05-11T08:19:58.835Z,97196.52
2019-05-11T08:22:28.566Z,97190.19
2019-05-11T08:24:58.692Z,97193.69
2019-05-11T08:27:28.644Z,97191.41
2019-05-11T08:29:59.654Z,97199.59
2019-05-11T08:32:29.303Z,97203.20
2019-05-11T08:34:58.778Z,97200.23
2019-05-11T08:37:28.540Z,97192.68
2019-05-11T08:39:58.606Z,97192.67
2019-05-11T08:42:28.863Z,97187.11
2019-05-11T08:45:14.820Z,97186.64
2019-05-11T08:47:29.702Z,97183.44
2019-05-11T08:49:59.194Z,97188.86
2019-05-11T08:52:28.568Z,97183.56
2019-05-11T08:54:58.002Z,97173.04
2019-05-11T08:57:28.493Z,97178.65
2019-05-11T08:59:58.823Z,97176.95
2019-05-11T09:02:28.206Z,97172.53
2019-05-11T09:04:58.965Z,97176.35
2019-05-11T09:07:28.590Z,97169.72
2019-05-11T09:09:58.715Z,97174.59
2019-05-11T09:12:28.781Z,97180.83
2019-05-11T09:14:58.602Z,97189.89
2019-05-11T09:17:28.939Z,97187.06
2019-05-11T09:19:58.543Z,97175.38
2019-05-11T09:22:28.473Z,97172.58
2019-05-11T09:24:58.415Z,97169.07
2019-05-11T09:27:28.618Z,97168.39
2019-05-11T09:29:58.952Z,97167.58
2019-05-11T09:32:28.742Z,97158.89
2019-05-11T09:34:58.206Z,97165.14
2019-05-11T09:37:27.849Z,97169.14
2019-05-11T09:39:58.390Z,97160.33
2019-05-11T09:42:28.567Z,97155.66
2019-05-11T09:44:58.050Z,97155.97
2019-05-11T09:47:28.058Z,97146.30
2019-05-11T09:49:58.241Z,97148.95
2019-05-11T09:52:32.490Z,97136.97
2019-05-11T09:55:02.180Z,97141.48
2019-05-11T09:57:31.566Z,97141.91
2019-05-11T10:00:00.970Z,97144.98
2019-05-11T10:02:30.582Z,97153.84
2019-05-11T10:05:00.246Z,97150.02
2019-05-11T10:07:32.501Z,97156.77
2019-05-11T10:10:00.934Z,97153.24
2019-05-11T10:12:30.341Z,97144.50
2019-05-11T10:14:59.723Z,97152.00
2019-05-11T10:17:29.136Z,97155.60
2019-05-11T10:19:58.503Z,97178.57
2019-05-11T10:22:28.029Z,97170.72
2019-05-11T10:24:58.231Z,97189.04
2019-05-11T10:27:28.123Z,97190.23
2019-05-11T10:29:58.949Z,97198.89
2019-05-11T10:32:28.872Z,97194.14
2019-05-11T10:34:58.505Z,97210.42
2019-05-11T10:37:28.432Z,97209.31
2019-05-11T10:39:57.993Z,97212.45
2019-05-11T10:42:28.388Z,97206.44
2019-05-11T10:44:58.351Z,97213.91
2019-05-11T10:47:28.050Z,97215.50
2019-05-11T10:49:57.963Z,97217.36
2019-05-11T10:52:28.527Z,97219.13
2019-05-11T10:54:58.760Z,97206.39
2019-05-11T10:57:28.529Z,97221.80
2019-05-11T10:59:58.189Z,97216.19
2019-05-11T11:02:28.086Z,97208.55
2019-05-11T11:04:58.833Z,97203.67
2019-05-11T11:07:29.110Z,97213.55
2019-05-11T11:09:58.558Z,97213.16
2019-05-11T11:12:28.080Z,97219.24
2019-05-11T11:14:58.749Z,97232.25
2019-05-11T11:17:28.848Z,97237.36
2019-05-11T11:19:58.461Z,97237.80
2019-05-11T11:22:37.090Z,97238.30
2019-05-11T11:24:59.355Z,97242.83
2019-05-11T11:27:29.283Z,97248.38
2019-05-11T11:29:59.229Z,97239.57
2019-05-11T11:32:28.966Z,97245.45
2019-05-11T11:34:58.717Z,97241.04
2019-05-11T11:37:28.361Z,97236.06
2019-05-11T11:39:58.266Z,97230.40
2019-05-11T11:42:28.286Z,97231.09
2019-05-11T11:44:58.763Z,97221.80
2019-05-11T11:47:28.413Z,97226.06
2019-05-11T11:49:58.411Z,97218.27
2019-05-11T11:52:28.225Z,97209.06
2019-05-11T11:54:58.699Z,97206.06
2019-05-11T11:57:28.565Z,97207.06
2019-05-11T11:59:58.838Z,97205.03
2019-05-11T12:02:28.482Z,97196.79
2019-05-11T12:04:58.373Z,97189.28
2019-05-11T12:07:28.513Z,97186.21
2019-05-11T12:09:58.882Z,97179.94
2019-05-11T12:12:28.562Z,97176.59
2019-05-11T12:14:58.583Z,97178.86
2019-05-11T12:17:28.664Z,97188.50
2019-05-11T12:19:58.676Z,97181.69
2019-05-11T12:22:28.638Z,97185.91
2019-05-11T12:24:58.917Z,97171.45
2019-05-11T12:27:29.034Z,97176.13
2019-05-11T12:29:58.525Z,97177.75
2019-05-11T12:32:35.201Z,97185.79
2019-05-11T12:35:05.114Z,97180.64
2019-05-11T12:37:34.680Z,97187.95
2019-05-11T12:40:04.665Z,97201.66
2019-05-11T12:42:34.614Z,97204.48
2019-05-11T12:45:04.725Z,97211.86
2019-05-11T12:47:34.117Z,97213.44
2019-05-11T12:50:03.843Z,97218.36
2019-05-11T12:52:33.236Z,97211.82
2019-05-11T12:55:02.620Z,97210.53
2019-05-11T12:57:31.995Z,97228.46
2019-05-11T13:00:01.554Z,97233.83
2019-05-11T13:02:30.926Z,97232.14
2019-05-11T13:05:00.290Z,97230.73
2019-05-11T13:07:29.729Z,97227.36
2019-05-11T13:09:59.105Z,97237.13
2019-05-11T13:12:28.507Z,97228.72
2019-05-11T13:14:58.145Z,97238.58
2019-05-11T13:17:36.985Z,97242.14
2019-05-11T13:19:58.886Z,97250.11
2019-05-11T13:22:28.999Z,97247.05
2019-05-11T13:24:58.932Z,97250.03
2019-05-11T13:27:28.505Z,97254.12
2019-05-11T13:29:59.197Z,97253.55
2019-05-11T13:32:28.671Z,97251.44
2019-05-11T13:34:58.512Z,97257.43
2019-05-11T13:37:28.375Z,97249.97
2019-05-11T13:39:58.084Z,97244.83
2019-05-11T13:42:27.803Z,97237.72
2019-05-11T13:44:58.435Z,97244.63
2019-05-11T13:47:28.361Z,97232.22
2019-05-11T13:49:58.392Z,97232.16
2019-05-11T13:52:28.640Z,97223.83
2019-05-11T13:54:58.556Z,97210.67
2019-05-11T13:57:28.630Z,97210.38
2019-05-11T13:59:58.157Z,97209.33
2019-05-11T14:02:28.517Z,97199.47
2019-05-11T14:04:58.599Z,97206.85
2019-05-11T14:07:28.147Z,97218.90
2019-05-11T14:09:58.875Z,97240.79
2019-05-11T14:12:28.883Z,97245.30
2019-05-11T14:14:58.463Z,97250.55
2019-05-11T14:17:31.647Z,97248.50
2019-05-11T14:19:59.708Z,97229.48
2019-05-11T14:22:29.215Z,97246.46
2019-05-11T14:24:59.051Z,97251.15
2019-05-11T14:27:28.694Z,97261.06
2019-05-11T14:29:58.539Z,97274.69
2019-05-11T14:32:28.634Z,97284.98
2019-05-11T14:34:58.088Z,97282.95
2019-05-11T14:37:28.592Z,97285.70
2019-05-11T14:39:58.443Z,97287.89
2019-05-11T14:42:28.740Z,97296.89
2019-05-11T14:44:59.109Z,97308.31
2019-05-11T14:47:28.972Z,97313.73
2019-05-11T14:49:58.852Z,97325.55
2019-05-11T14:52:28.421Z,97317.38
2019-05-11T14:54:58.466Z,97316.59
2019-05-11T14:57:28.045Z,97314.75
2019-05-11T14:59:58.622Z,97308.22
2019-05-11T15:02:49.257Z,97321.62
2019-05-11T15:05:18.798Z,97338.40
2019-05-11T15:07:51.922Z,97363.47
2019-05-11T15:10:20.956Z,97361.78
2019-05-11T15:12:50.367Z,97395.49
2019-05-11T15:15:20.024Z,97387.98
2019-05-11T15:17:49.644Z,97399.34
2019-05-11T15:20:19.550Z,97407.16
2019-05-11T15:22:49.197Z,97410.08
2019-05-11T15:25:19.866Z,97417.94
2019-05-11T15:27:49.677Z,97425.31
2019-05-11T15:30:19.397Z,97428.82
2019-05-11T15:32:48.793Z,97423.60
2019-05-11T15:35:18.986Z,97418.77
2019-05-11T15:37:49.014Z,97421.80
2019-05-11T15:40:19.714Z,97431.98
2019-05-11T15:42:49.414Z,97429.64
2019-05-11T15:45:19.556Z,97441.04
2019-05-11T15:47:49.239Z,97442.41
2019-05-11T15:50:20.656Z,97440.59
2019-05-11T15:52:50.262Z,97433.81
2019-05-11T15:55:20.857Z,97444.91
2019-05-11T15:57:50.487Z,97439.25
2019-05-11T16:00:21.578Z,97450.68
2019-05-11T16:02:50.927Z,97448.28
2019-05-11T16:05:20.681Z,97459.31
2019-05-11T16:07:50.077Z,97455.99
2019-05-11T16:10:19.465Z,97458.70
2019-05-11T16:12:49.303Z,97457.39
2019-05-11T16:15:20.401Z,97473.66
2019-05-11T16:17:50.348Z,97475.70
2019-05-11T16:20:19.976Z,97485.66
2019-05-11T16:22:49.681Z,97487.34
2019-05-11T16:25:20.070Z,97483.84
2019-05-11T16:27:50.182Z,97485.17
2019-05-11T16:30:21.723Z,97494.69
2019-05-11T16:32:51.375Z,97498.53
2019-05-11T16:35:20.733Z,97502.73
2019-05-11T16:37:50.091Z,97504.16
2019-05-11T16:40:20.889Z,97504.66
2019-05-11T16:42:50.803Z,97514.70
2019-05-11T16:45:23.542Z,97522.94
2019-05-11T16:47:51.678Z,97521.80
2019-05-11T16:50:21.125Z,97525.33
2019-05-11T16:52:50.881Z,97528.04
2019-05-11T16:55:20.351Z,97530.73
2019-05-11T16:57:49.802Z,97523.90
2019-05-11T17:00:19.615Z,97518.53
2019-05-11T17:02:49.415Z,97533.17
2019-05-11T17:05:26.667Z,97534.81
2019-05-11T17:07:50.107Z,97529.64
2019-05-11T17:10:19.794Z,97533.03
2019-05-11T17:12:49.259Z,97533.03
2019-05-11T17:15:19.094Z,97530.03
2019-05-11T17:17:49.131Z,97528.25
2019-05-11T17:20:19.746Z,97532.52
2019-05-11T17:22:49.385Z,97531.84
2019-05-11T17:25:19.654Z,97531.98
2019-05-11T17:27:49.395Z,97532.32
2019-05-11T17:30:19.844Z,97539.41
2019-05-11T17:32:50.023Z,97543.67
2019-05-11T17:35:19.565Z,97548.95
2019-05-11T17:37:49.091Z,97562.28
2019-05-11T17:40:23.080Z,97570.19
2019-05-11T17:42:53.598Z,97571.20
2019-05-11T17:45:21.293Z,97582.63
2019-05-11T17:47:50.681Z,97580.04
2019-05-11T17:50:20.159Z,97588.44
2019-05-11T17:52:49.593Z,97586.46
2019-05-11T17:55:18.978Z,97584.30
2019-05-11T17:57:49.741Z,97588.33
2019-05-11T18:00:20.331Z,97595.56
2019-05-11T18:02:50.269Z,97599.58
2019-05-11T18:05:19.639Z,97597.20
2019-05-11T18:07:48.994Z,97606.80
2019-05-11T18:10:18.570Z,97613.66
2019-05-11T18:12:48.756Z,97618.60
2019-05-11T18:15:19.061Z,97620.16
2019-05-11T18:17:49.052Z,97628.17
2019-05-11T18:20:21.627Z,97629.16
2019-05-11T18:22:49.917Z,97639.95
2019-05-11T18:25:19.644Z,97637.72
2019-05-11T18:27:49.005Z,97639.34
2019-05-11T18:30:18.381Z,97647.03
2019-05-11T18:32:49.088Z,97651.42
2019-05-11T18:35:19.577Z,97653.59
2019-05-11T18:37:49.218Z,97661.65
2019-05-11T18:40:18.999Z,97660.53
2019-05-11T18:42:49.125Z,97666.58
2019-05-11T18:45:19.222Z,97669.84
2019-05-11T18:47:49.328Z,97685.52
2019-05-11T18:50:30.593Z,97692.16
2019-05-11T18:52:50.695Z,97692.45
2019-05-11T18:55:20.434Z,97705.13
2019-05-11T18:57:50.229Z,97708.88
2019-05-11T19:00:20.151Z,97699.80
2019-05-11T19:02:49.913Z,97706.94
2019-05-11T19:05:19.406Z,97713.10
2019-05-11T19:07:48.813Z,97720.45
2019-05-11T19:10:18.160Z,97728.72
2019-05-11T19:12:48.840Z,97731.42
2019-05-11T19:15:19.390Z,97734.13
2019-05-11T19:17:49.356Z,97737.64
2019-05-11T19:20:19.111Z,97746.55
2019-05-11T19:22:48.480Z,97756.91
2019-05-11T19:25:18.318Z,97756.69
2019-05-11T19:27:50.229Z,97754.16
2019-05-11T19:30:19.671Z,97758.55
2019-05-11T19:32:49.076Z,97763.62
2019-05-11T19:35:21.214Z,97764.34
2019-05-11T19:37:49.619Z,97759.27
2019-05-11T19:40:19.015Z,97770.26
2019-05-11T19:42:55.118Z,97770.50
2019-05-11T19:45:24.811Z,97772.59
2019-05-11T19:47:54.229Z,97770.58
2019-05-11T19:50:23.634Z,97774.45
2019-05-11T19:52:52.997Z,97768.45
2019-05-11T19:55:22.401Z,97783.87
2019-05-11T19:57:51.831Z,97779.66
2019-05-11T20:00:21.625Z,97789.60
2019-05-11T20:02:51.027Z,97791.28
2019-05-11T20:05:20.383Z,97789.69
2019-05-11T20:07:49.798Z,97793.30
2019-05-11T20:10:19.333Z,97792.75
2019-05-11T20:12:49.140Z,97804.75
2019-05-11T20:15:19.207Z,97810.97
2019-05-11T20:17:49.214Z,97809.32
2019-05-11T20:20:19.065Z,97807.73
2019-05-11T20:22:48.863Z,97818.46
2019-05-11T20:25:19.160Z,97827.06
2019-05-11T20:27:49.195Z,97825.69
2019-05-11T20:30:19.597Z,97834.75
2019-05-11T20:32:49.498Z,97841.05
2019-05-11T20:35:19.192Z,97845.18
2019-05-11T20:37:48.569Z,97838.39
2019-05-11T20:40:18.542Z,97854.00
2019-05-11T20:42:48.686Z,97860.16
2019-05-11T20:45:18.806Z,97864.33
2019-05-11T20:47:49.125Z,97858.05
2019-05-11T20:50:18.988Z,97861.54
2019-05-11T20:52:48.915Z,97870.30
2019-05-11T20:55:18.616Z,97874.09
2019-05-11T20:57:48.849Z,97878.56
2019-05-11T21:00:19.058Z,97885.52
2019-05-11T21:02:49.103Z,97884.66
2019-05-11T21:05:18.843Z,97889.78
2019-05-11T21:07:48.332Z,97899.20
2019-05-11T21:10:18.056Z,97899.73
2019-05-11T21:12:47.470Z,97906.45
2019-05-11T21:15:17.176Z,97906.45
2019-05-11T21:17:50.247Z,97911.34
2019-05-11T21:20:18.428Z,97912.76
2019-05-11T21:22:48.672Z,97921.64
2019-05-11T21:25:19.133Z,97922.02
2019-05-11T21:27:48.911Z,97938.66
2019-05-11T21:30:18.852Z,97938.66
2019-05-11T21:32:48.212Z,97943.58
2019-05-11T21:35:19.283Z,97943.58
2019-05-11T21:37:48.898Z,97948.16
2019-05-11T21:40:18.542Z,97950.80
2019-05-11T21:42:47.924Z,97962.62
2019-05-11T21:45:18.430Z,97959.00
2019-05-11T21:47:48.978Z,97959.00
2019-05-11T21:50:19.256Z,97973.64
2019-05-11T21:52:48.790Z,97973.64
2019-05-11T21:55:18.200Z,97978.35
2019-05-11T21:57:49.676Z,97974.81
2019-05-11T22:00:19.302Z,97998.02
2019-05-11T22:02:48.842Z,97998.02
2019-05-11T22:05:20.919Z,97992.56
2019-05-11T22:07:49.734Z,98019.73
2019-05-11T22:10:19.304Z,98019.73
2019-05-11T22:12:49.148Z,98022.84
2019-05-11T22:15:18.857Z,98042.44
2019-05-11T22:17:48.651Z,98051.38
2019-05-11T22:20:18.471Z,98060.51
2019-05-11T22:22:48.018Z,98065.39
2019-05-11T22:25:18.234Z,98073.52
2019-05-11T22:27:48.815Z,98073.52
2019-05-11T22:30:18.857Z,98080.45
2019-05-11T22:32:48.331Z,98068.56
2019-05-11T22:35:18.531Z,98091.07
2019-05-11T22:37:49.080Z,98096.50
2019-05-11T22:40:18.739Z,98108.58
2019-05-11T22:42:48.140Z,98109.00
2019-05-11T22:45:18.637Z,98109.00
2019-05-11T22:47:48.355Z,98133.11
2019-05-11T22:50:18.697Z,98133.11
2019-05-11T22:52:48.508Z,98139.59
2019-05-11T22:55:18.892Z,98131.67
2019-05-11T22:57:48.919Z,98136.63
2019-05-11T23:00:21.999Z,98136.63
2019-05-11T23:02:51.403Z,98141.21
2019-05-11T23:05:20.851Z,98142.41
2019-05-11T23:07:50.244Z,98137.86
2019-05-11T23:10:19.788Z,98137.86
2019-05-11T23:12:49.159Z,98154.22
2019-05-11T23:15:19.272Z,98150.57
2019-05-11T23:17:48.769Z,98168.62
2019-05-11T23:20:18.355Z,98171.44
2019-05-11T23:22:57.078Z,98175.35
2019-05-11T23:25:19.466Z,98168.25
2019-05-11T23:27:49.185Z,98167.65
2019-05-11T23:30:20.264Z,98174.81
2019-05-11T23:32:50.089Z,98176.94
2019-05-11T23:35:19.467Z,98176.94
2019-05-11T23:37:50.015Z,98175.30
2019-05-11T23:40:20.209Z,98182.57
2019-05-11T23:42:49.804Z,98183.22
2019-05-11T23:45:19.570Z,98191.45
2019-05-11T23:47:49.303Z,98191.52
2019-05-11T23:50:19.541Z,98191.45
2019-05-11T23:53:04.215Z,98207.20
2019-05-11T23:55:20.387Z,98207.20
2019-05-11T23:57:49.905Z,98209.89
